Time;durP1;ratioP1;P1;durP2;ratioP2;P2;SDS_P1;SDS_P2;PMS_P1;PMS_P2;Temp;Humidity;BMP_temperature;BMP_pressure;BME280_temperature;BME280_humidity;BME280_pressure;Samples;Min_cycle;Max_cycle;Signal;HPM_P1;HPM_P2
2023/09/22 00:00:41;;;;;;;1999.90;999.90;;;;;;;;;;5064440;28;20191;-67
2023/09/22 00:03:09;;;;;;;1999.90;999.90;;;;;;;;;;5066629;28;20199;-68
2023/09/22 00:05:36;;;;;;;1999.90;999.90;;;;;;;;;;5063510;28;20198;-68
2023/09/22 00:08:04;;;;;;;1999.90;999.90;;;;;;;;;;5065110;28;20218;-68
2023/09/22 00:10:33;;;;;;;1999.90;999.90;;;;;;;;;;5065405;28;20206;-68
2023/09/22 00:13:01;;;;;;;1999.90;999.90;;;;;;;;;;5065010;28;20187;-68
2023/09/22 00:15:28;;;;;;;1999.90;999.90;;;;;;;;;;5059006;28;20596;-68
2023/09/22 00:17:55;;;;;;;1999.90;999.90;;;;;;;;;;5064281;28;20229;-68
2023/09/22 00:20:23;;;;;;;1999.90;999.90;;;;;;;;;;5066044;28;20198;-68
2023/09/22 00:22:50;;;;;;;1999.90;999.90;;;;;;;;;;5064491;28;20191;-68
2023/09/22 00:25:17;;;;;;;1999.90;999.90;;;;;;;;;;5066128;28;20495;-68
2023/09/22 00:27:46;;;;;;;1999.90;999.90;;;;;;;;;;5063656;28;20191;-68
2023/09/22 00:30:14;;;;;;;1999.90;999.90;;;;;;;;;;5064948;28;20552;-68
2023/09/22 00:32:41;;;;;;;1999.90;999.90;;;;;;;;;;5065064;28;20203;-68
2023/09/22 00:35:10;;;;;;;1999.90;999.90;;;;;;;;;;5063788;28;20234;-68
2023/09/22 00:37:40;;;;;;;1999.90;999.90;;;;;;;;;;5066478;28;20347;-68
2023/09/22 00:40:08;;;;;;;1999.90;999.90;;;;;;;;;;5062770;28;20207;-68
2023/09/22 00:42:36;;;;;;;1999.90;999.90;;;;;;;;;;5069379;28;20240;-68
2023/09/22 00:45:04;;;;;;;1999.90;999.90;;;;;;;;;;5068496;28;20198;-68
2023/09/22 00:47:32;;;;;;;1999.90;999.90;;;;;;;;;;5067630;28;20928;-68
2023/09/22 00:50:00;;;;;;;1999.90;999.90;;;;;;;;;;5069353;28;20211;-68
2023/09/22 00:52:28;;;;;;;1999.90;999.90;;;;;;;;;;5067810;28;20620;-68
2023/09/22 00:54:56;;;;;;;1999.90;999.90;;;;;;;;;;5068766;28;20548;-68
2023/09/22 00:57:23;;;;;;;1999.90;999.90;;;;;;;;;;5065993;28;20234;-68
2023/09/22 00:59:51;;;;;;;1999.90;999.90;;;;;;;;;;5067495;28;20290;-68
2023/09/22 01:02:21;;;;;;;1999.90;999.90;;;;;;;;;;5066855;28;20203;-68
2023/09/22 01:04:48;;;;;;;1999.90;999.90;;;;;;;;;;5068526;28;20191;-68
2023/09/22 01:07:16;;;;;;;1999.90;999.90;;;;;;;;;;5069199;28;20642;-68
2023/09/22 01:09:43;;;;;;;1999.90;999.90;;;;;;;;;;5066974;28;20564;-68
2023/09/22 01:12:10;;;;;;;1999.90;999.90;;;;;;;;;;5067082;28;20661;-68
2023/09/22 01:14:38;;;;;;;1999.90;999.90;;;;;;;;;;5062717;28;20187;-68
2023/09/22 01:17:06;;;;;;;1999.90;999.90;;;;;;;;;;5046893;28;20224;-68
2023/09/22 01:19:35;;;;;;;1999.90;999.90;;;;;;;;;;5046334;28;20192;-68
2023/09/22 01:22:05;;;;;;;1999.90;999.90;;;;;;;;;;5048075;28;20475;-68
2023/09/22 01:24:32;;;;;;;1999.90;999.90;;;;;;;;;;5048979;28;20199;-68
2023/09/22 01:26:59;;;;;;;1999.90;999.90;;;;;;;;;;5047150;28;20202;-68
2023/09/22 01:29:27;;;;;;;1999.90;999.90;;;;;;;;;;5048715;28;20241;-67
2023/09/22 01:31:54;;;;;;;1999.90;999.90;;;;;;;;;;5046839;28;20278;-68
2023/09/22 01:34:21;;;;;;;1999.90;999.90;;;;;;;;;;5053191;28;20234;-68
2023/09/22 01:36:49;;;;;;;1999.90;999.90;;;;;;;;;;5067030;28;20218;-68
2023/09/22 01:39:19;;;;;;;1999.90;999.90;;;;;;;;;;5067509;28;20199;-68
2023/09/22 01:41:46;;;;;;;1999.90;999.90;;;;;;;;;;5068379;28;20191;-68
2023/09/22 01:44:13;;;;;;;1999.90;999.90;;;;;;;;;;5066628;28;20213;-68
2023/09/22 01:46:41;;;;;;;1999.90;999.90;;;;;;;;;;5050788;28;20215;-68
2023/09/22 01:49:08;;;;;;;1999.90;999.90;;;;;;;;;;5065916;28;20545;-68
2023/09/22 01:51:38;;;;;;;1999.90;999.90;;;;;;;;;;5068324;28;20209;-67
2023/09/22 01:54:06;;;;;;;1999.90;999.90;;;;;;;;;;5066147;28;20184;-68
2023/09/22 01:56:34;;;;;;;1999.90;999.90;;;;;;;;;;5064631;28;20299;-68
2023/09/22 01:59:02;;;;;;;1999.90;999.90;;;;;;;;;;5062971;28;20192;-68
2023/09/22 02:01:29;;;;;;;1999.90;999.90;;;;;;;;;;5066365;28;20179;-68
2023/09/22 02:03:57;;;;;;;1999.90;999.90;;;;;;;;;;5049744;28;20268;-67
2023/09/22 02:06:24;;;;;;;1999.90;999.90;;;;;;;;;;5064064;28;20201;-68
2023/09/22 02:08:52;;;;;;;1999.90;999.90;;;;;;;;;;5067946;28;20654;-67
2023/09/22 02:11:19;;;;;;;1999.90;999.90;;;;;;;;;;5065755;28;20638;-68
2023/09/22 02:13:48;;;;;;;1999.90;999.90;;;;;;;;;;5066729;28;20556;-68
2023/09/22 02:16:16;;;;;;;1999.90;999.90;;;;;;;;;;5065629;28;20281;-68
2023/09/22 02:18:43;;;;;;;1999.90;999.90;;;;;;;;;;5066568;28;21134;-67
2023/09/22 02:21:13;;;;;;;1999.90;999.90;;;;;;;;;;5065997;28;20635;-67
2023/09/22 02:23:40;;;;;;;1999.90;999.90;;;;;;;;;;5066236;28;20612;-68
2023/09/22 02:26:07;;;;;;;1999.90;999.90;;;;;;;;;;5067476;28;20198;-68
2023/09/22 02:28:35;;;;;;;1999.90;999.90;;;;;;;;;;5066085;28;20187;-67
2023/09/22 02:31:03;;;;;;;1999.90;999.90;;;;;;;;;;5066556;28;20230;-68
2023/09/22 02:33:31;;;;;;;1999.90;999.90;;;;;;;;;;5066534;28;20194;-68
2023/09/22 02:36:00;;;;;;;1999.90;999.90;;;;;;;;;;5065280;28;20186;-68
2023/09/22 02:38:27;;;;;;;1999.90;999.90;;;;;;;;;;5067530;28;20669;-68
2023/09/22 02:40:54;;;;;;;1999.90;999.90;;;;;;;;;;5065479;28;20240;-68
2023/09/22 02:43:22;;;;;;;1999.90;999.90;;;;;;;;;;5066802;28;20199;-68
2023/09/22 02:45:49;;;;;;;1999.90;999.90;;;;;;;;;;5065499;28;20688;-68
2023/09/22 02:48:18;;;;;;;1999.90;999.90;;;;;;;;;;5065839;28;20199;-67
2023/09/22 02:50:46;;;;;;;1999.90;999.90;;;;;;;;;;5065293;28;20524;-68
2023/09/22 02:53:13;;;;;;;1999.90;999.90;;;;;;;;;;5064953;28;20223;-67
2023/09/22 02:55:41;;;;;;;1999.90;999.90;;;;;;;;;;5065922;28;20207;-68
2023/09/22 02:58:09;;;;;;;1999.90;999.90;;;;;;;;;;5064893;28;20215;-68
2023/09/22 03:00:36;;;;;;;1999.90;999.90;;;;;;;;;;5065325;28;20195;-68
2023/09/22 03:03:05;;;;;;;1999.90;999.90;;;;;;;;;;5062956;28;20230;-68
2023/09/22 03:05:33;;;;;;;1999.90;999.90;;;;;;;;;;5065461;28;20290;-68
2023/09/22 03:08:02;;;;;;;1999.90;999.90;;;;;;;;;;5066432;28;20202;-68
2023/09/22 03:10:30;;;;;;;1999.90;999.90;;;;;;;;;;5065900;28;20195;-68
2023/09/22 03:12:57;;;;;;;1999.90;999.90;;;;;;;;;;5067079;28;20198;-68
2023/09/22 03:15:25;;;;;;;1999.90;999.90;;;;;;;;;;5062989;28;20206;-68
2023/09/22 03:17:52;;;;;;;1999.90;999.90;;;;;;;;;;5065601;28;20233;-68
2023/09/22 03:20:20;;;;;;;1999.90;999.90;;;;;;;;;;5064243;28;20207;-68
2023/09/22 03:22:49;;;;;;;1999.90;999.90;;;;;;;;;;5066673;28;20711;-68
2023/09/22 03:25:17;;;;;;;1999.90;999.90;;;;;;;;;;5064029;28;20205;-68
2023/09/22 03:27:44;;;;;;;1999.90;999.90;;;;;;;;;;5064887;28;20191;-68
2023/09/22 03:30:12;;;;;;;1999.90;999.90;;;;;;;;;;5066228;28;20582;-67
2023/09/22 03:32:40;;;;;;;1999.90;999.90;;;;;;;;;;5063417;28;20194;-67
2023/09/22 03:35:08;;;;;;;1999.90;999.90;;;;;;;;;;5066304;28;20245;-68
2023/09/22 03:37:35;;;;;;;1999.90;999.90;;;;;;;;;;5064774;28;20211;-68
2023/09/22 03:40:10;;;;;;;1999.90;999.90;;;;;;;;;;5066341;28;20218;-68
2023/09/22 03:42:37;;;;;;;1999.90;999.90;;;;;;;;;;5065717;28;20189;-67
2023/09/22 03:45:06;;;;;;;1999.90;999.90;;;;;;;;;;5053866;28;20210;-68
2023/09/22 03:47:33;;;;;;;1999.90;999.90;;;;;;;;;;5046628;28;20547;-68
2023/09/22 03:50:01;;;;;;;1999.90;999.90;;;;;;;;;;5044666;28;20196;-67
2023/09/22 03:52:28;;;;;;;1999.90;999.90;;;;;;;;;;5044854;28;20238;-68
2023/09/22 03:54:55;;;;;;;1999.90;999.90;;;;;;;;;;5043746;28;20191;-68
2023/09/22 03:57:25;;;;;;;1999.90;999.90;;;;;;;;;;5044380;28;20212;-67
2023/09/22 03:59:52;;;;;;;1999.90;999.90;;;;;;;;;;5043683;28;20213;-68
2023/09/22 04:02:20;;;;;;;1999.90;999.90;;;;;;;;;;5043882;28;20203;-67
2023/09/22 04:04:47;;;;;;;1999.90;999.90;;;;;;;;;;5046716;28;20310;-67
2023/09/22 04:07:15;;;;;;;1999.90;999.90;;;;;;;;;;5044322;28;20188;-68
2023/09/22 04:09:44;;;;;;;1999.90;999.90;;;;;;;;;;5047942;28;20219;-67
2023/09/22 04:12:12;;;;;;;1999.90;999.90;;;;;;;;;;5062667;28;20195;-67
2023/09/22 04:14:41;;;;;;;1999.90;999.90;;;;;;;;;;5066473;28;20199;-67
2023/09/22 04:17:08;;;;;;;1999.90;999.90;;;;;;;;;;5068201;28;20187;-67
2023/09/22 04:19:37;;;;;;;1999.90;999.90;;;;;;;;;;5068496;28;20218;-67
2023/09/22 04:22:06;;;;;;;1999.90;999.90;;;;;;;;;;5070055;28;20198;-67
2023/09/22 04:24:34;;;;;;;1999.90;999.90;;;;;;;;;;5067886;28;20681;-68
2023/09/22 04:27:06;;;;;;;1999.90;999.90;;;;;;;;;;5070305;28;20202;-67
2023/09/22 04:29:35;;;;;;;1999.90;999.90;;;;;;;;;;5067476;28;20190;-67
2023/09/22 04:32:04;;;;;;;1999.90;999.90;;;;;;;;;;5069736;28;20221;-67
2023/09/22 04:34:32;;;;;;;1999.90;999.90;;;;;;;;;;5067878;28;20222;-68
2023/09/22 04:36:59;;;;;;;1999.90;999.90;;;;;;;;;;5067631;28;20195;-67
2023/09/22 04:39:27;;;;;;;1999.90;999.90;;;;;;;;;;5068607;28;20233;-67
2023/09/22 04:41:54;;;;;;;1999.90;999.90;;;;;;;;;;5067955;28;20188;-67
2023/09/22 04:44:22;;;;;;;1999.90;999.90;;;;;;;;;;5069249;28;20563;-68
2023/09/22 04:46:49;;;;;;;1999.90;999.90;;;;;;;;;;5067616;28;20191;-67
2023/09/22 04:49:18;;;;;;;1999.90;999.90;;;;;;;;;;5068898;28;20249;-67
2023/09/22 04:51:45;;;;;;;1999.90;999.90;;;;;;;;;;5068267;28;20199;-67
2023/09/22 04:54:13;;;;;;;1999.90;999.90;;;;;;;;;;5069102;28;20218;-68
2023/09/22 04:56:40;;;;;;;1999.90;999.90;;;;;;;;;;5068572;28;20191;-67
2023/09/22 04:59:09;;;;;;;1999.90;999.90;;;;;;;;;;5066144;28;20211;-67
2023/09/22 05:01:37;;;;;;;1999.90;999.90;;;;;;;;;;5067843;28;20191;-67
2023/09/22 05:04:05;;;;;;;1999.90;999.90;;;;;;;;;;5067175;28;20202;-67
2023/09/22 05:06:34;;;;;;;1999.90;999.90;;;;;;;;;;5067468;28;20603;-68
2023/09/22 05:09:02;;;;;;;1999.90;999.90;;;;;;;;;;5065873;28;20190;-68
2023/09/22 05:11:29;;;;;;;1999.90;999.90;;;;;;;;;;5067350;28;20483;-67
2023/09/22 05:13:57;;;;;;;1999.90;999.90;;;;;;;;;;5064145;28;20179;-67
2023/09/22 05:16:24;;;;;;;1999.90;999.90;;;;;;;;;;5066439;28;20232;-67
2023/09/22 05:18:52;;;;;;;1999.90;999.90;;;;;;;;;;5067635;28;20594;-68
2023/09/22 05:21:19;;;;;;;1999.90;999.90;;;;;;;;;;5066636;28;20194;-68
2023/09/22 05:23:48;;;;;;;1999.90;999.90;;;;;;;;;;5067633;28;20194;-67
2023/09/22 05:26:15;;;;;;;1999.90;999.90;;;;;;;;;;5060177;28;20195;-67
2023/09/22 05:28:42;;;;;;;1999.90;999.90;;;;;;;;;;5067582;28;20214;-67
2023/09/22 05:31:10;;;;;;;1999.90;999.90;;;;;;;;;;5066252;28;20653;-67
2023/09/22 05:33:37;;;;;;;1999.90;999.90;;;;;;;;;;5066664;28;20268;-68
2023/09/22 05:36:05;;;;;;;1999.90;999.90;;;;;;;;;;5068523;28;20179;-67
2023/09/22 05:38:32;;;;;;;1999.90;999.90;;;;;;;;;;5065544;28;20682;-67
2023/09/22 05:41:01;;;;;;;1999.90;999.90;;;;;;;;;;5062822;28;20281;-67
2023/09/22 05:43:31;;;;;;;1999.90;999.90;;;;;;;;;;5054896;28;20199;-67
2023/09/22 05:45:58;;;;;;;1999.90;999.90;;;;;;;;;;5047542;28;20230;-67
2023/09/22 05:48:25;;;;;;;1999.90;999.90;;;;;;;;;;5047274;28;20209;-67
2023/09/22 05:50:57;;;;;;;1999.90;999.90;;;;;;;;;;5048143;28;20276;-67
2023/09/22 05:53:25;;;;;;;1999.90;999.90;;;;;;;;;;5067588;28;20228;-67
2023/09/22 05:56:04;;;;;;;1999.90;999.90;;;;;;;;;;5066719;28;20674;-67
2023/09/22 05:58:32;;;;;;;1999.90;999.90;;;;;;;;;;5067644;28;20294;-67
2023/09/22 06:01:00;;;;;;;1999.90;999.90;;;;;;;;;;5066794;28;20673;-67
2023/09/22 06:03:27;;;;;;;1999.90;999.90;;;;;;;;;;5067534;28;20241;-67
2023/09/22 06:05:54;;;;;;;1999.90;999.90;;;;;;;;;;5067725;28;20221;-67
2023/09/22 06:08:22;;;;;;;1999.90;999.90;;;;;;;;;;5065094;28;20206;-67
2023/09/22 06:10:49;;;;;;;1999.90;999.90;;;;;;;;;;5065608;28;20194;-67
2023/09/22 06:13:18;;;;;;;1999.90;999.90;;;;;;;;;;5065988;28;20191;-67
2023/09/22 06:15:45;;;;;;;1999.90;999.90;;;;;;;;;;5067592;28;20213;-67
2023/09/22 06:18:14;;;;;;;1999.90;999.90;;;;;;;;;;5065937;28;20187;-67
2023/09/22 06:20:41;;;;;;;1999.90;999.90;;;;;;;;;;5067052;28;20296;-67
2023/09/22 06:23:09;;;;;;;1999.90;999.90;;;;;;;;;;5066016;28;20198;-67
2023/09/22 06:25:36;;;;;;;1999.90;999.90;;;;;;;;;;5064851;28;20280;-67
2023/09/22 06:28:05;;;;;;;1999.90;999.90;;;;;;;;;;5067645;28;20196;-67
2023/09/22 06:30:34;;;;;;;1999.90;999.90;;;;;;;;;;5065137;28;20241;-66
2023/09/22 06:33:03;;;;;;;1999.90;999.90;;;;;;;;;;5067853;28;20199;-67
2023/09/22 06:35:30;;;;;;;1999.90;999.90;;;;;;;;;;5065165;28;20231;-66
2023/09/22 06:37:58;;;;;;;1999.90;999.90;;;;;;;;;;5067331;28;20188;-68
2023/09/22 06:40:26;;;;;;;1999.90;999.90;;;;;;;;;;5066499;28;20669;-68
2023/09/22 06:42:53;;;;;;;1999.90;999.90;;;;;;;;;;5066064;28;20183;-68
2023/09/22 06:45:21;;;;;;;1999.90;999.90;;;;;;;;;;5067396;28;20646;-68
2023/09/22 06:47:50;;;;;;;1999.90;999.90;;;;;;;;;;5065062;28;20196;-68
2023/09/22 06:50:19;;;;;;;1999.90;999.90;;;;;;;;;;5067008;28;20202;-68
2023/09/22 06:52:46;;;;;;;1999.90;999.90;;;;;;;;;;5063668;28;20370;-68
2023/09/22 06:55:14;;;;;;;1999.90;999.90;;;;;;;;;;5067001;28;20210;-68
2023/09/22 06:57:41;;;;;;;1999.90;999.90;;;;;;;;;;5064688;28;20199;-68
2023/09/22 07:00:14;;;;;;;1999.90;999.90;;;;;;;;;;5063252;28;20221;-68
2023/09/22 07:02:42;;;;;;;1999.90;999.90;;;;;;;;;;5065779;28;20275;-68
2023/09/22 07:05:12;;;;;;;1999.90;999.90;;;;;;;;;;5062866;28;20202;-68
2023/09/22 07:07:40;;;;;;;1999.90;999.90;;;;;;;;;;5064384;28;20199;-68
2023/09/22 07:10:09;;;;;;;1999.90;999.90;;;;;;;;;;5064016;28;20210;-68
2023/09/22 07:12:37;;;;;;;1999.90;999.90;;;;;;;;;;5065681;28;20231;-67
2023/09/22 07:15:04;;;;;;;1999.90;999.90;;;;;;;;;;5065583;28;20686;-68
2023/09/22 07:17:32;;;;;;;1999.90;999.90;;;;;;;;;;5065327;28;20557;-67
2023/09/22 07:20:00;;;;;;;1999.90;999.90;;;;;;;;;;5064857;28;20231;-67
2023/09/22 07:22:32;;;;;;;1999.90;999.90;;;;;;;;;;5064732;28;20244;-68
2023/09/22 07:25:00;;;;;;;1999.90;999.90;;;;;;;;;;5066569;28;20203;-68
2023/09/22 07:27:28;;;;;;;1999.90;999.90;;;;;;;;;;5064012;28;20658;-67
2023/09/22 07:29:55;;;;;;;1999.90;999.90;;;;;;;;;;5065398;28;20198;-67
2023/09/22 07:32:22;;;;;;;1999.90;999.90;;;;;;;;;;5065350;28;20206;-67
2023/09/22 07:34:51;;;;;;;1999.90;999.90;;;;;;;;;;5064573;28;20234;-67
2023/09/22 07:37:18;;;;;;;1999.90;999.90;;;;;;;;;;5064731;28;20197;-67
2023/09/22 07:39:48;;;;;;;1999.90;999.90;;;;;;;;;;5063365;28;20291;-67
2023/09/22 07:42:15;;;;;;;1999.90;999.90;;;;;;;;;;5047672;28;20201;-68
2023/09/22 07:44:43;;;;;;;1999.90;999.90;;;;;;;;;;5063750;28;20212;-67
2023/09/22 07:47:13;;;;;;;1999.90;999.90;;;;;;;;;;5066339;28;20205;-68
2023/09/22 07:49:42;;;;;;;1999.90;999.90;;;;;;;;;;5066178;28;20288;-67
2023/09/22 07:52:10;;;;;;;1999.90;999.90;;;;;;;;;;5050781;28;20220;-67
2023/09/22 07:54:39;;;;;;;1999.90;999.90;;;;;;;;;;5069844;28;20187;-68
2023/09/22 07:57:07;;;;;;;1999.90;999.90;;;;;;;;;;5066720;28;20210;-67
2023/09/22 07:59:35;;;;;;;1999.90;999.90;;;;;;;;;;5069510;28;20206;-68
2023/09/22 08:02:03;;;;;;;1999.90;999.90;;;;;;;;;;5068050;28;20205;-68
2023/09/22 08:04:30;;;;;;;1999.90;999.90;;;;;;;;;;5068609;28;20205;-68
2023/09/22 08:06:59;;;;;;;1999.90;999.90;;;;;;;;;;5068689;28;20210;-68
2023/09/22 08:09:27;;;;;;;1999.90;999.90;;;;;;;;;;5068527;28;20205;-67
2023/09/22 08:11:54;;;;;;;1999.90;999.90;;;;;;;;;;5069714;28;20198;-67
2023/09/22 08:14:25;;;;;;;1999.90;999.90;;;;;;;;;;5067944;28;20202;-67
2023/09/22 08:16:52;;;;;;;1999.90;999.90;;;;;;;;;;5069357;28;20735;-67
2023/09/22 08:19:19;;;;;;;1999.90;999.90;;;;;;;;;;5065911;28;20228;-68
2023/09/22 08:21:48;;;;;;;1999.90;999.90;;;;;;;;;;5069584;28;20561;-67
2023/09/22 08:24:15;;;;;;;1999.90;999.90;;;;;;;;;;5068540;28;20230;-67
2023/09/22 08:26:43;;;;;;;1999.90;999.90;;;;;;;;;;5068376;28;20194;-67
2023/09/22 08:29:10;;;;;;;1999.90;999.90;;;;;;;;;;5067656;28;20203;-68
2023/09/22 08:31:39;;;;;;;1999.90;999.90;;;;;;;;;;5067734;28;20203;-68
2023/09/22 08:34:08;;;;;;;1999.90;999.90;;;;;;;;;;5068566;28;20204;-67
2023/09/22 08:36:35;;;;;;;1999.90;999.90;;;;;;;;;;5067778;28;20317;-67
2023/09/22 08:39:02;;;;;;;1999.90;999.90;;;;;;;;;;5068358;28;20726;-70
2023/09/22 08:41:32;;;;;;;1999.90;999.90;;;;;;;;;;5067632;28;20201;-68
2023/09/22 08:44:01;;;;;;;1999.90;999.90;;;;;;;;;;5067484;28;20187;-68
2023/09/22 08:46:28;;;;;;;1999.90;999.90;;;;;;;;;;5067887;28;20599;-69
2023/09/22 08:48:57;;;;;;;1999.90;999.90;;;;;;;;;;5066210;28;20207;-68
2023/09/22 08:51:24;;;;;;;1999.90;999.90;;;;;;;;;;5067478;28;20207;-68
2023/09/22 08:53:53;;;;;;;1999.90;999.90;;;;;;;;;;5066741;28;20190;-68
2023/09/22 08:56:21;;;;;;;1999.90;999.90;;;;;;;;;;5050585;28;20191;-68
2023/09/22 08:58:49;;;;;;;1999.90;999.90;;;;;;;;;;5065842;28;20783;-68
2023/09/22 09:01:18;;;;;;;1999.90;999.90;;;;;;;;;;5066680;28;20733;-69
2023/09/22 09:03:46;;;;;;;1999.90;999.90;;;;;;;;;;5067202;28;20195;-69
2023/09/22 09:06:17;;;;;;;1999.90;999.90;;;;;;;;;;5064844;28;20626;-69
2023/09/22 09:09:04;;;;;;;1999.90;999.90;;;;;;;;;;5068084;28;20210;-68
2023/09/22 09:11:31;;;;;;;1999.90;999.90;;;;;;;;;;5065664;28;20203;-68
2023/09/22 09:13:58;;;;;;;1999.90;999.90;;;;;;;;;;5067769;28;20260;-68
2023/09/22 09:16:35;;;;;;;1999.90;999.90;;;;;;;;;;5065318;28;20207;-68
2023/09/22 09:19:15;;;;;;;1999.90;999.90;;;;;;;;;;5065449;28;20205;-68
2023/09/22 09:21:53;;;;;;;1999.90;999.90;;;;;;;;;;5067587;28;20544;-68
2023/09/22 09:24:24;;;;;;;1999.90;999.90;;;;;;;;;;5064489;28;20558;-68
2023/09/22 09:26:52;;;;;;;1999.90;999.90;;;;;;;;;;5067616;28;20213;-68
2023/09/22 09:29:27;;;;;;;1999.90;999.90;;;;;;;;;;5066643;28;20193;-68
2023/09/22 09:31:55;;;;;;;1999.90;999.90;;;;;;;;;;5065944;28;20189;-68
2023/09/22 09:34:23;;;;;;;1999.90;999.90;;;;;;;;;;5067906;28;20696;-68
2023/09/22 09:37:10;;;;;;;1999.90;999.90;;;;;;;;;;5046930;28;20237;-68
2023/09/22 09:39:46;;;;;;;1999.90;999.90;;;;;;;;;;5066625;28;20284;-68
2023/09/22 09:42:15;;;;;;;1999.90;999.90;;;;;;;;;;5064655;28;20205;-68
2023/09/22 09:44:47;;;;;;;1999.90;999.90;;;;;;;;;;5065148;28;20244;-68
2023/09/22 09:47:18;;;;;;;1999.90;999.90;;;;;;;;;;5065792;28;20216;-68
2023/09/22 09:49:47;;;;;;;1999.90;999.90;;;;;;;;;;5065127;28;20183;-68
2023/09/22 09:52:16;;;;;;;1999.90;999.90;;;;;;;;;;5066983;28;20230;-68
2023/09/22 09:54:47;;;;;;;1999.90;999.90;;;;;;;;;;5063909;28;20194;-68
2023/09/22 09:57:20;;;;;;;1999.90;999.90;;;;;;;;;;5067065;28;20171;-69
2023/09/22 09:59:48;;;;;;;1999.90;999.90;;;;;;;;;;5066267;28;20314;-69
2023/09/22 10:02:16;;;;;;;1999.90;999.90;;;;;;;;;;5065985;28;20202;-67
2023/09/22 10:04:44;;;;;;;1999.90;999.90;;;;;;;;;;5065884;28;20527;-69
2023/09/22 10:07:11;;;;;;;1999.90;999.90;;;;;;;;;;5065845;28;20199;-67
2023/09/22 10:09:38;;;;;;;1999.90;999.90;;;;;;;;;;5067783;28;20195;-69
2023/09/22 10:12:06;;;;;;;1999.90;999.90;;;;;;;;;;5063691;28;20211;-69
2023/09/22 10:15:01;;;;;;;1999.90;999.90;;;;;;;;;;5066312;28;20257;-69
2023/09/22 10:17:29;;;;;;;1999.90;999.90;;;;;;;;;;5067705;28;20179;-68
2023/09/22 10:19:57;;;;;;;1999.90;999.90;;;;;;;;;;5065643;28;20733;-70
2023/09/22 10:22:25;;;;;;;1999.90;999.90;;;;;;;;;;5068020;28;20241;-72
2023/09/22 10:25:07;;;;;;;1999.90;999.90;;;;;;;;;;5066121;28;20198;-70
2023/09/22 10:27:54;;;;;;;1999.90;999.90;;;;;;;;;;5065330;28;20561;-69
2023/09/22 10:30:27;;;;;;;1999.90;999.90;;;;;;;;;;5067285;28;20187;-70
2023/09/22 10:33:25;;;;;;;1999.90;999.90;;;;;;;;;;5063640;28;20224;-72
2023/09/22 10:35:53;;;;;;;1999.90;999.90;;;;;;;;;;5065234;28;20233;-71
2023/09/22 10:38:21;;;;;;;1999.90;999.90;;;;;;;;;;5062563;28;20198;-70
2023/09/22 10:41:03;;;;;;;1999.90;999.90;;;;;;;;;;5048466;28;20680;-71
2023/09/22 10:43:32;;;;;;;1999.90;999.90;;;;;;;;;;5066443;28;20179;-73
2023/09/22 10:46:01;;;;;;;1999.90;999.90;;;;;;;;;;5064371;28;20198;-69
2023/09/22 10:48:33;;;;;;;1999.90;999.90;;;;;;;;;;5065772;28;20205;-72
2023/09/22 10:51:02;;;;;;;1999.90;999.90;;;;;;;;;;5064389;28;20262;-70
2023/09/22 10:53:33;;;;;;;1999.90;999.90;;;;;;;;;;5063586;28;20192;-70
2023/09/22 10:56:03;;;;;;;1999.90;999.90;;;;;;;;;;5063122;28;20245;-70
2023/09/22 10:58:30;;;;;;;1999.90;999.90;;;;;;;;;;5065820;28;20766;-70
2023/09/22 11:01:00;;;;;;;1999.90;999.90;;;;;;;;;;5067096;28;20565;-69
2023/09/22 11:03:29;;;;;;;1999.90;999.90;;;;;;;;;;5064863;28;20186;-70
2023/09/22 11:06:00;;;;;;;1999.90;999.90;;;;;;;;;;5066787;28;20195;-71
2023/09/22 11:08:28;;;;;;;1999.90;999.90;;;;;;;;;;5063177;28;20748;-70
2023/09/22 11:10:56;;;;;;;1999.90;999.90;;;;;;;;;;5065772;28;20746;-71
2023/09/22 11:13:24;;;;;;;1999.90;999.90;;;;;;;;;;5065061;28;20191;-70
2023/09/22 11:15:54;;;;;;;1999.90;999.90;;;;;;;;;;5078009;28;20282;-71
2023/09/22 11:18:23;;;;;;;1999.90;999.90;;;;;;;;;;5064123;28;20207;-71
2023/09/22 11:20:55;;;;;;;1999.90;999.90;;;;;;;;;;5063350;28;20225;-71
2023/09/22 11:23:24;;;;;;;1999.90;999.90;;;;;;;;;;5065984;28;20550;-70
2023/09/22 11:25:55;;;;;;;1999.90;999.90;;;;;;;;;;5063252;28;20202;-71
2023/09/22 11:28:22;;;;;;;1999.90;999.90;;;;;;;;;;5063955;28;20649;-70
2023/09/22 11:30:51;;;;;;;1999.90;999.90;;;;;;;;;;5064672;28;20195;-70
2023/09/22 11:33:18;;;;;;;1999.90;999.90;;;;;;;;;;5064609;28;20661;-70
2023/09/22 11:35:47;;;;;;;1999.90;999.90;;;;;;;;;;5066254;28;20250;-71
2023/09/22 11:38:27;;;;;;;1999.90;999.90;;;;;;;;;;5064178;28;20199;-70
2023/09/22 11:41:03;;;;;;;1999.90;999.90;;;;;;;;;;5065249;28;20593;-70
2023/09/22 11:43:31;;;;;;;1999.90;999.90;;;;;;;;;;5065006;28;20182;-71
2023/09/22 11:46:08;;;;;;;1999.90;999.90;;;;;;;;;;5062506;28;20199;-70
2023/09/22 11:48:51;;;;;;;1999.90;999.90;;;;;;;;;;5046123;28;20191;-70
2023/09/22 11:51:19;;;;;;;1999.90;999.90;;;;;;;;;;5042457;28;20227;-71
2023/09/22 11:53:48;;;;;;;1999.90;999.90;;;;;;;;;;5046049;28;20194;-70
2023/09/22 11:56:16;;;;;;;1999.90;999.90;;;;;;;;;;5053865;28;20204;-71
2023/09/22 11:58:43;;;;;;;1999.90;999.90;;;;;;;;;;5065358;28;20273;-73
2023/09/22 12:01:13;;;;;;;1999.90;999.90;;;;;;;;;;5062424;28;20211;-71
2023/09/22 12:03:40;;;;;;;1999.90;999.90;;;;;;;;;;5064911;28;20532;-70
2023/09/22 12:06:10;;;;;;;1999.90;999.90;;;;;;;;;;5066165;28;20202;-70
2023/09/22 12:08:37;;;;;;;1999.90;999.90;;;;;;;;;;5063281;28;20195;-72
2023/09/22 12:11:07;;;;;;;1999.90;999.90;;;;;;;;;;5066347;28;20206;-71
2023/09/22 12:13:34;;;;;;;1999.90;999.90;;;;;;;;;;5064749;28;20240;-68
2023/09/22 12:16:02;;;;;;;1999.90;999.90;;;;;;;;;;5065107;28;20198;-74
2023/09/22 12:18:30;;;;;;;1999.90;999.90;;;;;;;;;;5064263;28;20205;-74
2023/09/22 12:20:58;;;;;;;1999.90;999.90;;;;;;;;;;5063382;28;20219;-71
2023/09/22 12:23:25;;;;;;;1999.90;999.90;;;;;;;;;;5065134;28;20179;-71
2023/09/22 12:25:52;;;;;;;1999.90;999.90;;;;;;;;;;5064194;28;20241;-69
2023/09/22 12:28:21;;;;;;;1999.90;999.90;;;;;;;;;;5065002;28;20190;-70
2023/09/22 12:30:49;;;;;;;1999.90;999.90;;;;;;;;;;5064845;28;20382;-70
2023/09/22 12:33:16;;;;;;;1999.90;999.90;;;;;;;;;;5065982;28;20187;-69
2023/09/22 12:35:44;;;;;;;1999.90;999.90;;;;;;;;;;5064996;28;20240;-67
2023/09/22 12:38:11;;;;;;;1999.90;999.90;;;;;;;;;;5068245;28;20218;-71
2023/09/22 12:40:39;;;;;;;1999.90;999.90;;;;;;;;;;5068962;28;20224;-72
2023/09/22 12:43:06;;;;;;;1999.90;999.90;;;;;;;;;;5066080;28;20288;-70
2023/09/22 12:45:35;;;;;;;1999.90;999.90;;;;;;;;;;5067385;28;20199;-69
2023/09/22 12:48:03;;;;;;;1999.90;999.90;;;;;;;;;;5068180;28;20298;-67
2023/09/22 12:50:30;;;;;;;1999.90;999.90;;;;;;;;;;5069270;28;20196;-71
2023/09/22 12:52:58;;;;;;;1999.90;999.90;;;;;;;;;;5066493;28;20213;-69
2023/09/22 12:55:25;;;;;;;1999.90;999.90;;;;;;;;;;5068298;28;20199;-74
2023/09/22 12:57:53;;;;;;;1999.90;999.90;;;;;;;;;;5068048;28;20201;-69
2023/09/22 13:00:20;;;;;;;1999.90;999.90;;;;;;;;;;5067070;28;20676;-71
2023/09/22 13:02:49;;;;;;;1999.90;999.90;;;;;;;;;;5068515;28;20223;-70
2023/09/22 13:05:17;;;;;;;1999.90;999.90;;;;;;;;;;5066434;28;20187;-71
2023/09/22 13:07:45;;;;;;;1999.90;999.90;;;;;;;;;;5068572;28;20202;-70
2023/09/22 13:10:12;;;;;;;1999.90;999.90;;;;;;;;;;5062367;28;20191;-71
2023/09/22 13:12:42;;;;;;;1999.90;999.90;;;;;;;;;;5065194;28;20192;-70
2023/09/22 13:15:10;;;;;;;1999.90;999.90;;;;;;;;;;5068051;28;20195;-70
2023/09/22 13:17:37;;;;;;;1999.90;999.90;;;;;;;;;;5065447;28;20244;-71
2023/09/22 13:20:07;;;;;;;1999.90;999.90;;;;;;;;;;5068741;28;20253;-70
2023/09/22 13:22:35;;;;;;;1999.90;999.90;;;;;;;;;;5067078;28;20623;-70
2023/09/22 13:25:03;;;;;;;1999.90;999.90;;;;;;;;;;5069520;28;20208;-70
2023/09/22 13:27:31;;;;;;;1999.90;999.90;;;;;;;;;;5067128;28;20281;-70
2023/09/22 13:29:59;;;;;;;1999.90;999.90;;;;;;;;;;5068104;28;20200;-69
2023/09/22 13:32:26;;;;;;;1999.90;999.90;;;;;;;;;;5066666;28;20636;-69
2023/09/22 13:34:54;;;;;;;1999.90;999.90;;;;;;;;;;5068073;28;20192;-70
2023/09/22 13:37:22;;;;;;;1999.90;999.90;;;;;;;;;;5067961;28;20237;-70
2023/09/22 13:39:50;;;;;;;1999.90;999.90;;;;;;;;;;5066507;28;20209;-70
2023/09/22 13:42:17;;;;;;;1999.90;999.90;;;;;;;;;;5066615;28;20222;-69
2023/09/22 13:44:44;;;;;;;1999.90;999.90;;;;;;;;;;5066628;28;20291;-68
2023/09/22 13:47:12;;;;;;;1999.90;999.90;;;;;;;;;;5067649;28;20187;-70
2023/09/22 13:49:39;;;;;;;1999.90;999.90;;;;;;;;;;5066991;28;20202;-69